Time;durP1;ratioP1;P1;durP2;ratioP2;P2;SDS_P1;SDS_P2;PMS_P1;PMS_P2;Temp;Humidity;BMP_temperature;BMP_pressure;BME280_temperature;BME280_humidity;BME280_pressure;Samples;Min_cycle;Max_cycle;Signal;HPM_P1;HPM_P2
2023/10/14 00:01:13;;;;;;;6.70;1.45;;;15.60;99.90;;;;;;5052398;28;20529;-66
2023/10/14 00:03:45;;;;;;;4.07;0.98;;;15.30;99.90;;;;;;5052970;28;20194;-66
2023/10/14 00:06:12;;;;;;;6.07;1.90;;;15.10;99.90;;;;;;5052634;28;20528;-66
2023/10/14 00:08:54;;;;;;;5.88;1.58;;;14.90;99.90;;;;;;5052608;28;20172;-66
2023/10/14 00:11:21;;;;;;;8.55;1.90;;;14.90;99.90;;;;;;5056073;28;20505;-66
2023/10/14 00:13:52;;;;;;;5.15;1.98;;;14.80;99.90;;;;;;5055935;28;20211;-66
2023/10/14 00:19:03;;;;;;;6.05;1.55;;;14.70;99.90;;;;;;5056046;28;20178;-66
2023/10/14 00:21:28;;;;;;;6.45;1.70;;;14.70;99.90;;;;;;5055783;28;20229;-66
2023/10/14 00:23:57;;;;;;;8.18;1.90;;;14.80;99.90;;;;;;5055832;28;20199;-66
2023/10/14 00:26:26;;;;;;;7.30;2.10;;;14.80;99.90;;;;;;5055718;28;20192;-66
2023/10/14 00:29:01;;;;;;;6.20;1.95;;;14.70;99.90;;;;;;5055956;28;20175;-65
2023/10/14 00:31:26;;;;;;;9.05;2.20;;;14.80;99.90;;;;;;5056011;28;20179;-65
2023/10/14 00:33:52;;;;;;;6.53;2.20;;;14.70;99.90;;;;;;5055715;28;20663;-65
2023/10/14 00:36:22;;;;;;;10.32;2.25;;;14.80;99.90;;;;;;5055661;28;20179;-66
2023/10/14 00:38:55;;;;;;;5.68;1.77;;;14.90;99.90;;;;;;5055473;28;20167;-66
2023/10/14 00:41:27;;;;;;;8.43;2.15;;;14.90;99.90;;;;;;5055812;28;20167;-66
2023/10/14 00:43:53;;;;;;;6.72;2.10;;;14.90;99.90;;;;;;5055782;28;20244;-65
2023/10/14 00:46:23;;;;;;;6.95;1.88;;;14.80;99.90;;;;;;5055538;28;20172;-65
2023/10/14 00:48:51;;;;;;;7.63;2.30;;;14.90;99.90;;;;;;5055455;28;20172;-66
2023/10/14 00:51:19;;;;;;;10.07;2.17;;;14.90;99.90;;;;;;5055309;28;20696;-66
2023/10/14 00:54:02;;;;;;;7.75;2.13;;;14.90;99.90;;;;;;5054287;28;20187;-66
2023/10/14 00:56:29;;;;;;;10.68;2.63;;;14.90;99.90;;;;;;5055364;28;20190;-66
2023/10/14 00:58:59;;;;;;;8.38;2.67;;;14.90;99.90;;;;;;5055268;28;20258;-65
2023/10/14 01:01:30;;;;;;;6.45;2.50;;;14.90;99.90;;;;;;5055255;28;20179;-66
2023/10/14 01:06:55;;;;;;;5.78;2.38;;;15.00;99.90;;;;;;5055182;28;20194;-66
2023/10/14 01:09:21;;;;;;;10.57;3.33;;;15.00;99.90;;;;;;5055150;28;20179;-66
2023/10/14 01:11:46;;;;;;;7.43;3.30;;;14.90;99.90;;;;;;5054981;28;20171;-66
2023/10/14 01:14:17;;;;;;;7.88;2.47;;;14.90;99.90;;;;;;5054785;28;20655;-66
2023/10/14 01:16:46;;;;;;;8.45;2.47;;;15.00;99.90;;;;;;5054967;28;20671;-65
2023/10/14 01:19:15;;;;;;;7.72;2.97;;;14.90;99.90;;;;;;5054800;28;20168;-66
2023/10/14 01:21:41;;;;;;;8.02;3.17;;;14.90;99.90;;;;;;5054176;28;20180;-66
2023/10/14 01:24:15;;;;;;;8.48;3.40;;;14.90;99.90;;;;;;5054644;28;20203;-66
2023/10/14 01:26:51;;;;;;;11.70;3.35;;;14.90;99.90;;;;;;5054668;28;20186;-66
2023/10/14 01:29:30;;;;;;;9.98;3.45;;;14.80;99.90;;;;;;5054625;28;20484;-66
2023/10/14 01:32:10;;;;;;;9.15;2.85;;;14.80;99.90;;;;;;5054583;28;20627;-67
2023/10/14 01:34:42;;;;;;;8.00;2.90;;;14.80;99.90;;;;;;5054646;28;20202;-66
2023/10/14 01:37:35;;;;;;;9.98;3.33;;;14.80;99.90;;;;;;5054405;28;20706;-69
2023/10/14 01:40:06;;;;;;;12.45;3.45;;;14.70;99.90;;;;;;5054471;28;20196;-66
2023/10/14 01:42:32;;;;;;;7.43;2.60;;;14.70;99.90;;;;;;5054512;28;20587;-66
2023/10/14 01:44:58;;;;;;;9.55;2.97;;;14.60;99.90;;;;;;5054311;28;20203;-66
2023/10/14 01:47:27;;;;;;;12.40;3.22;;;14.70;99.90;;;;;;5053067;28;20205;-66
2023/10/14 01:49:53;;;;;;;11.20;3.17;;;14.60;99.90;;;;;;5054383;28;20258;-66
2023/10/14 01:52:23;;;;;;;10.95;3.40;;;14.60;99.90;;;;;;5054364;28;20544;-67
2023/10/14 01:54:48;;;;;;;11.20;3.33;;;14.60;99.90;;;;;;5054114;28;20615;-67
2023/10/14 01:57:17;;;;;;;13.07;3.10;;;14.40;99.90;;;;;;5054125;28;20176;-66
2023/10/14 01:59:46;;;;;;;11.18;3.08;;;14.40;99.90;;;;;;5054026;28;20215;-66
2023/10/14 02:02:12;;;;;;;9.95;3.30;;;14.30;99.90;;;;;;5053953;28;20534;-66
2023/10/14 02:04:38;;;;;;;9.82;3.35;;;14.20;99.90;;;;;;5054045;28;20541;-66
2023/10/14 02:07:19;;;;;;;12.63;3.17;;;14.10;99.90;;;;;;5054107;28;20182;-66
2023/10/14 02:09:45;;;;;;;10.65;2.80;;;14.10;99.90;;;;;;5053936;28;20179;-67
2023/10/14 02:12:13;;;;;;;9.85;2.92;;;13.80;99.90;;;;;;5053849;28;20176;-66
2023/10/14 02:14:54;;;;;;;7.68;2.78;;;13.80;99.90;;;;;;5053682;28;20171;-66
2023/10/14 02:17:20;;;;;;;9.68;2.75;;;13.70;99.90;;;;;;5053901;28;20217;-66
2023/10/14 02:19:49;;;;;;;8.77;2.72;;;13.70;99.90;;;;;;5053564;28;20258;-66
2023/10/14 02:22:21;;;;;;;9.05;2.97;;;13.60;99.90;;;;;;5053711;28;20175;-66
2023/10/14 02:24:48;;;;;;;8.52;2.67;;;13.50;99.90;;;;;;5053522;28;20206;-66
2023/10/14 02:27:14;;;;;;;5.13;2.22;;;13.40;99.90;;;;;;5052209;28;20618;-65
2023/10/14 02:29:47;;;;;;;7.55;2.80;;;13.30;99.90;;;;;;5053510;28;20246;-66
2023/10/14 02:32:13;;;;;;;10.88;2.90;;;13.40;99.90;;;;;;5053644;28;20179;-66
2023/10/14 02:34:46;;;;;;;10.30;3.17;;;13.20;99.90;;;;;;5053582;28;20179;-66
2023/10/14 02:37:15;;;;;;;12.05;2.75;;;13.30;99.90;;;;;;5053428;28;20179;-66
2023/10/14 02:39:44;;;;;;;9.98;2.85;;;13.20;99.90;;;;;;5053352;28;20163;-66
2023/10/14 02:42:10;;;;;;;7.68;2.28;;;13.10;99.90;;;;;;5052031;28;20187;-66
2023/10/14 02:44:44;;;;;;;9.48;2.65;;;13.20;99.90;;;;;;5053393;28;20213;-66
2023/10/14 02:47:10;;;;;;;11.93;3.08;;;13.10;99.90;;;;;;5053513;28;20535;-67
2023/10/14 02:49:37;;;;;;;11.25;2.38;;;13.00;99.90;;;;;;5053325;28;20177;-66
2023/10/14 02:52:10;;;;;;;6.97;2.60;;;12.90;99.90;;;;;;5053263;28;20529;-66
2023/10/14 02:54:36;;;;;;;8.05;2.58;;;12.90;99.90;;;;;;5053087;28;20190;-67
2023/10/14 02:57:35;;;;;;;8.73;2.75;;;12.80;99.90;;;;;;5053332;28;20225;-66
2023/10/14 02:59:58;;;;;;;6.28;2.45;;;12.80;99.90;;;;;;5052859;28;20633;-66
2023/10/14 03:07:30;;;;;;;6.35;2.28;;;12.70;99.90;;;;;;5053254;28;20271;-67
2023/10/14 03:10:10;;;;;;;7.30;2.25;;;12.70;99.90;;;;;;5053221;28;20175;-67
2023/10/14 03:12:39;;;;;;;7.55;2.30;;;12.70;99.90;;;;;;5053066;28;20620;-67
2023/10/14 03:15:18;;;;;;;6.85;2.40;;;12.70;99.90;;;;;;5052912;28;20202;-67
2023/10/14 03:17:52;;;;;;;7.45;2.60;;;12.60;99.90;;;;;;5052944;28;20527;-67
2023/10/14 03:22:55;;;;;;;12.48;2.70;;;12.50;99.90;;;;;;5053120;28;20209;-67
2023/10/14 03:25:23;;;;;;;8.25;2.30;;;12.50;99.90;;;;;;5052876;28;20203;-67
2023/10/14 03:27:50;;;;;;;7.13;2.83;;;12.40;99.90;;;;;;5053197;28;20179;-67
2023/10/14 03:30:20;;;;;;;8.30;2.90;;;12.40;99.90;;;;;;5052855;28;20654;-67
2023/10/14 03:32:46;;;;;;;12.75;3.60;;;12.30;99.90;;;;;;5053015;28;20214;-67
2023/10/14 03:35:12;;;;;;;13.25;3.92;;;12.30;99.90;;;;;;5051945;28;20223;-67
2023/10/14 03:37:44;;;;;;;8.45;3.88;;;12.40;99.90;;;;;;5052761;28;20670;-67
2023/10/14 03:43:05;;;;;;;9.82;4.07;;;12.30;99.90;;;;;;5052906;28;20174;-67
2023/10/14 03:45:31;;;;;;;10.30;4.90;;;12.30;99.90;;;;;;5055381;28;20187;-67
2023/10/14 03:48:00;;;;;;;14.38;4.40;;;12.30;99.90;;;;;;5056715;28;20509;-67
2023/10/14 03:50:26;;;;;;;8.35;3.90;;;12.20;99.90;;;;;;5056478;28;20181;-67
2023/10/14 03:52:55;;;;;;;10.43;3.88;;;12.20;99.90;;;;;;5056388;28;20171;-67
2023/10/14 03:55:26;;;;;;;10.43;4.25;;;12.10;99.90;;;;;;5056631;28;20236;-67
2023/10/14 03:58:03;;;;;;;11.65;4.15;;;12.10;99.90;;;;;;5056607;28;20193;-67
2023/10/14 04:00:43;;;;;;;10.30;3.95;;;12.10;99.90;;;;;;5056412;28;20182;-67
2023/10/14 04:03:13;;;;;;;10.73;4.28;;;12.10;99.90;;;;;;5056181;28;20228;-67
2023/10/14 04:05:52;;;;;;;10.35;4.25;;;12.10;99.90;;;;;;5056361;28;20175;-67
2023/10/14 04:08:30;;;;;;;9.02;4.13;;;12.10;99.90;;;;;;5056410;28;20178;-67
2023/10/14 04:11:09;;;;;;;9.57;4.07;;;12.00;99.90;;;;;;5056220;28;20179;-67
2023/10/14 04:13:35;;;;;;;8.45;3.85;;;12.10;99.90;;;;;;5056039;28;20228;-67
2023/10/14 04:16:01;;;;;;;10.43;3.97;;;12.00;99.90;;;;;;5056000;28;20266;-67
2023/10/14 04:18:28;;;;;;;9.20;3.90;;;12.00;99.90;;;;;;5056129;28;20785;-67
2023/10/14 04:24:08;;;;;;;8.50;4.25;;;12.00;99.90;;;;;;5056032;28;20709;-66
2023/10/14 04:26:35;;;;;;;8.02;3.90;;;12.10;99.90;;;;;;5056073;28;20289;-68
2023/10/14 04:29:03;;;;;;;10.35;4.00;;;11.90;99.90;;;;;;5055775;28;20662;-68
2023/10/14 04:31:40;;;;;;;8.43;4.65;;;12.00;99.90;;;;;;5055857;28;20168;-67
2023/10/14 04:34:07;;;;;;;11.10;4.25;;;12.00;99.90;;;;;;5055803;28;20175;-67
2023/10/14 04:36:38;;;;;;;7.68;3.35;;;11.90;99.90;;;;;;5055636;28;20171;-67
2023/10/14 04:39:13;;;;;;;8.30;3.70;;;11.90;99.90;;;;;;5055782;28;20181;-68
2023/10/14 04:41:55;;;;;;;11.25;3.47;;;11.90;99.90;;;;;;5055685;28;20175;-67
2023/10/14 04:44:23;;;;;;;9.68;3.30;;;11.90;99.90;;;;;;5055537;28;20203;-67
2023/10/14 04:46:55;;;;;;;8.43;3.20;;;11.80;99.90;;;;;;5055450;28;20183;-67
2023/10/14 04:49:35;;;;;;;7.95;2.85;;;11.70;99.90;;;;;;5055688;28;20195;-67
2023/10/14 04:52:02;;;;;;;6.70;2.60;;;11.70;99.90;;;;;;5055505;28;20240;-68
2023/10/14 04:54:29;;;;;;;8.82;2.83;;;11.70;99.90;;;;;;5055422;28;20215;-67
2023/10/14 04:56:57;;;;;;;8.23;2.85;;;11.60;99.90;;;;;;5053093;28;20205;-67
2023/10/14 04:59:27;;;;;;;6.22;2.40;;;11.50;99.90;;;;;;5055422;28;20195;-67
2023/10/14 05:01:55;;;;;;;7.85;2.67;;;11.50;99.90;;;;;;5055402;28;20175;-67
2023/10/14 05:04:29;;;;;;;6.97;2.53;;;11.60;99.90;;;;;;5055199;28;20211;-68
2023/10/14 05:06:55;;;;;;;7.70;2.45;;;11.60;99.90;;;;;;5055277;28;20190;-67
2023/10/14 05:09:30;;;;;;;8.93;2.35;;;11.40;99.90;;;;;;5055170;28;20203;-67
2023/10/14 05:11:58;;;;;;;7.93;2.75;;;11.50;99.90;;;;;;5054994;28;20202;-68
2023/10/14 05:14:38;;;;;;;6.68;2.58;;;11.50;99.90;;;;;;5055204;28;20564;-68
2023/10/14 05:17:25;;;;;;;8.25;2.95;;;11.50;99.90;;;;;;5055119;28;20183;-67
2023/10/14 05:19:57;;;;;;;8.90;2.40;;;11.50;99.90;;;;;;5054622;28;20227;-67
2023/10/14 05:22:37;;;;;;;5.38;2.30;;;11.40;99.90;;;;;;5054748;28;20175;-67
2023/10/14 05:25:08;;;;;;;5.70;2.50;;;11.40;99.90;;;;;;5054963;28;20203;-67
2023/10/14 05:27:55;;;;;;;9.73;2.60;;;11.40;99.90;;;;;;5054928;28;20629;-67
2023/10/14 05:30:21;;;;;;;10.15;2.70;;;11.30;99.90;;;;;;5054708;28;20179;-68
2023/10/14 05:32:48;;;;;;;10.07;2.63;;;11.30;99.90;;;;;;5054594;28;20226;-68
2023/10/14 05:35:14;;;;;;;6.25;2.42;;;11.30;99.90;;;;;;5054750;28;20187;-65
2023/10/14 05:37:42;;;;;;;8.57;2.60;;;11.20;99.90;;;;;;5054663;28;20636;-67
2023/10/14 05:40:21;;;;;;;7.30;1.95;;;11.20;99.90;;;;;;5054555;28;20207;-67
2023/10/14 05:42:47;;;;;;;6.70;2.60;;;11.10;99.90;;;;;;5054181;28;20628;-67
2023/10/14 05:45:12;;;;;;;10.35;2.78;;;11.20;99.90;;;;;;5053577;28;20297;-65
2023/10/14 05:47:42;;;;;;;9.10;2.92;;;11.10;99.90;;;;;;5054332;28;20274;-67
2023/10/14 05:50:08;;;;;;;6.72;3.08;;;11.10;99.90;;;;;;5054206;28;20655;-67
2023/10/14 05:52:34;;;;;;;8.00;2.40;;;11.10;99.90;;;;;;5054364;28;20197;-67
2023/10/14 05:55:01;;;;;;;10.25;2.63;;;11.20;99.90;;;;;;5054158;28;20179;-67
2023/10/14 05:57:29;;;;;;;8.88;2.72;;;11.10;99.90;;;;;;5054169;28;20532;-67
2023/10/14 05:59:58;;;;;;;6.88;2.53;;;11.10;99.90;;;;;;5054003;28;20537;-67
2023/10/14 06:02:26;;;;;;;6.47;2.50;;;11.10;99.90;;;;;;5054223;28;20195;-67
2023/10/14 06:04:52;;;;;;;8.90;2.70;;;11.20;99.90;;;;;;5054075;28;20213;-67
2023/10/14 06:07:18;;;;;;;8.05;2.35;;;11.10;99.90;;;;;;5053747;28;20183;-68
2023/10/14 06:09:45;;;;;;;7.97;2.83;;;11.20;99.90;;;;;;5054115;28;20183;-68
2023/10/14 06:12:14;;;;;;;6.10;1.90;;;11.10;99.90;;;;;;5053978;28;20167;-67
2023/10/14 06:14:46;;;;;;;10.02;2.70;;;11.10;99.90;;;;;;5053738;28;20186;-68
2023/10/14 06:17:15;;;;;;;8.48;2.70;;;11.10;99.90;;;;;;5053933;28;20180;-68
2023/10/14 06:19:42;;;;;;;8.15;2.75;;;11.10;99.90;;;;;;5052470;28;20231;-68
2023/10/14 06:22:08;;;;;;;9.63;2.88;;;11.10;99.90;;;;;;5053707;28;20206;-67
2023/10/14 06:24:34;;;;;;;7.75;3.15;;;11.10;99.90;;;;;;5053633;28;20195;-67
2023/10/14 06:27:09;;;;;;;9.88;2.63;;;11.10;99.90;;;;;;5053490;28;20180;-67
2023/10/14 06:29:35;;;;;;;8.63;2.55;;;11.10;99.90;;;;;;5053841;28;20175;-68
2023/10/14 06:32:03;;;;;;;9.10;2.80;;;10.90;99.90;;;;;;5053652;28;20178;-68
2023/10/14 06:34:31;;;;;;;8.57;2.80;;;11.10;99.90;;;;;;5053600;28;20191;-68
2023/10/14 06:37:07;;;;;;;9.93;2.90;;;11.10;99.90;;;;;;5050609;28;20179;-68
2023/10/14 06:39:39;;;;;;;9.38;2.90;;;10.90;99.90;;;;;;5053176;28;20189;-67
2023/10/14 06:42:05;;;;;;;10.05;2.20;;;11.00;99.90;;;;;;5053035;28;20206;-68
2023/10/14 06:44:32;;;;;;;12.50;3.58;;;11.10;99.90;;;;;;5053291;28;20195;-68
2023/10/14 06:46:58;;;;;;;10.00;2.80;;;11.10;99.90;;;;;;5052826;28;20584;-68
2023/10/14 06:49:32;;;;;;;9.68;2.45;;;11.20;99.90;;;;;;5053085;28;20230;-68
2023/10/14 06:51:58;;;;;;;7.97;2.90;;;11.20;99.90;;;;;;5053003;28;20210;-68
2023/10/14 06:54:30;;;;;;;8.85;2.95;;;11.30;99.90;;;;;;5052864;28;20183;-68
2023/10/14 06:56:56;;;;;;;6.80;2.65;;;11.30;99.90;;;;;;5052203;28;20176;-68
2023/10/14 06:59:21;;;;;;;10.85;2.72;;;11.30;99.90;;;;;;5053127;28;20173;-67
2023/10/14 07:01:48;;;;;;;6.95;2.33;;;11.40;99.90;;;;;;5053154;28;20336;-68
2023/10/14 07:04:16;;;;;;;11.15;3.47;;;11.30;99.90;;;;;;5052951;28;20198;-68
2023/10/14 07:06:47;;;;;;;8.93;3.33;;;11.40;99.90;;;;;;5052911;28;20182;-68
2023/10/14 07:09:22;;;;;;;13.38;3.97;;;11.40;99.90;;;;;;5053131;28;20324;-67
2023/10/14 07:11:48;;;;;;;6.95;3.58;;;11.50;99.90;;;;;;5053152;28;20175;-69
2023/10/14 07:14:14;;;;;;;14.20;4.45;;;11.40;99.90;;;;;;5053011;28;20182;-66
2023/10/14 07:16:42;;;;;;;11.35;4.55;;;11.50;99.90;;;;;;5052729;28;20242;-68
2023/10/14 07:19:08;;;;;;;12.43;3.88;;;11.50;99.90;;;;;;5053061;28;20183;-67
2023/10/14 07:21:34;;;;;;;8.25;3.33;;;11.50;99.90;;;;;;5057142;28;20187;-68
2023/10/14 07:24:05;;;;;;;8.40;3.30;;;11.60;99.90;;;;;;5057217;28;20290;-68
2023/10/14 07:26:36;;;;;;;10.90;3.47;;;11.70;99.90;;;;;;5057291;28;20587;-68
2023/10/14 07:29:03;;;;;;;10.65;3.15;;;11.70;99.90;;;;;;5057093;28;20258;-66
2023/10/14 07:31:31;;;;;;;9.88;3.60;;;11.70;99.90;;;;;;5057064;28;20171;-68
2023/10/14 07:34:02;;;;;;;10.00;3.42;;;11.80;99.90;;;;;;5056772;28;20171;-68
2023/10/14 07:36:29;;;;;;;9.50;3.60;;;11.80;99.90;;;;;;5057095;28;20533;-68
2023/10/14 07:39:02;;;;;;;9.60;3.20;;;11.90;99.90;;;;;;5057004;28;20175;-68
2023/10/14 07:41:28;;;;;;;11.20;3.33;;;11.90;99.90;;;;;;5057015;28;20210;-67
2023/10/14 07:43:54;;;;;;;7.43;2.70;;;11.90;99.90;;;;;;5056775;28;20222;-67
2023/10/14 07:46:20;;;;;;;8.90;3.40;;;11.90;99.90;;;;;;5056711;28;20183;-68
2023/10/14 07:48:46;;;;;;;9.82;3.10;;;11.90;99.90;;;;;;5056533;28;20210;-68
2023/10/14 07:51:13;;;;;;;10.18;3.30;;;12.00;99.90;;;;;;5055526;28;20250;-68
2023/10/14 07:53:40;;;;;;;8.10;2.83;;;12.10;99.90;;;;;;5055975;28;20179;-67
2023/10/14 07:56:06;;;;;;;9.73;3.22;;;12.20;99.90;;;;;;5056460;28;20263;-68
2023/10/14 07:58:32;;;;;;;10.90;3.65;;;12.10;99.90;;;;;;5055388;28;20173;-68
2023/10/14 08:01:06;;;;;;;10.07;3.20;;;12.20;99.90;;;;;;5055747;28;20186;-67
2023/10/14 08:03:31;;;;;;;8.00;3.17;;;12.10;99.90;;;;;;5052216;28;20548;-67
2023/10/14 08:05:59;;;;;;;9.88;3.08;;;12.20;99.90;;;;;;5056375;28;20187;-68
2023/10/14 08:08:30;;;;;;;11.38;3.40;;;12.30;99.90;;;;;;5055872;28;20179;-67
2023/10/14 08:11:00;;;;;;;12.98;3.47;;;12.30;99.90;;;;;;5056026;28;20179;-67
2023/10/14 08:13:27;;;;;;;10.15;3.30;;;12.40;99.90;;;;;;5054619;28;20179;-66
2023/10/14 08:15:54;;;;;;;11.65;3.42;;;12.50;99.90;;;;;;5055770;28;20171;-69
2023/10/14 08:18:24;;;;;;;10.35;3.72;;;12.50;99.90;;;;;;5056138;28;20246;-67
2023/10/14 08:20:53;;;;;;;8.95;3.10;;;12.50;99.90;;;;;;5055385;28;20687;-64
2023/10/14 08:23:20;;;;;;;12.57;3.63;;;12.60;99.90;;;;;;5055608;28;20175;-67
2023/10/14 08:25:47;;;;;;;12.35;3.30;;;12.60;99.90;;;;;;5055623;28;20179;-67
2023/10/14 08:28:13;;;;;;;9.90;3.63;;;12.50;99.90;;;;;;5055661;28;20179;-67
2023/10/14 08:30:45;;;;;;;8.80;3.65;;;12.60;99.90;;;;;;5055570;28;20171;-66
2023/10/14 08:33:24;;;;;;;9.82;3.33;;;12.70;99.90;;;;;;5055175;28;20184;-67
2023/10/14 08:35:51;;;;;;;9.43;3.40;;;12.70;99.90;;;;;;5054873;28;20199;-66
2023/10/14 08:38:27;;;;;;;8.45;2.92;;;12.80;99.90;;;;;;5055439;28;20245;-67
2023/10/14 08:40:59;;;;;;;9.18;3.08;;;12.80;99.90;;;;;;5055523;28;20160;-67
2023/10/14 08:43:28;;;;;;;12.98;3.75;;;12.90;99.90;;;;;;5055400;28;20175;-67
2023/10/14 08:45:54;;;;;;;13.85;4.28;;;13.00;99.90;;;;;;5055542;28;20237;-62
2023/10/14 08:48:24;;;;;;;12.25;3.65;;;13.00;99.90;;;;;;5055499;28;20179;-68
2023/10/14 08:50:55;;;;;;;11.45;3.63;;;13.10;99.90;;;;;;5055356;28;20186;-67
2023/10/14 08:53:22;;;;;;;14.18;3.88;;;13.10;99.90;;;;;;5055569;28;20206;-68
2023/10/14 08:55:48;;;;;;;13.75;3.70;;;13.20;99.90;;;;;;5055340;28;20210;-68
2023/10/14 08:58:14;;;;;;;12.70;4.18;;;13.30;99.90;;;;;;5055401;28;20652;-67
2023/10/14 09:00:44;;;;;;;11.57;3.70;;;13.20;99.90;;;;;;5055303;28;20179;-67
2023/10/14 09:03:11;;;;;;;10.35;3.88;;;13.30;99.90;;;;;;5053986;28;20624;-67
2023/10/14 09:05:40;;;;;;;9.35;4.13;;;13.30;99.90;;;;;;5054979;28;20179;-67
2023/10/14 09:08:10;;;;;;;12.70;4.28;;;13.50;99.90;;;;;;5055059;28;20210;-67
2023/10/14 09:10:39;;;;;;;11.27;3.88;;;13.40;99.90;;;;;;5054052;28;20602;-67
2023/10/14 09:13:08;;;;;;;9.27;3.78;;;13.50;99.90;;;;;;5055084;28;20175;-68
2023/10/14 09:15:42;;;;;;;10.20;4.15;;;13.60;99.90;;;;;;5054920;28;20180;-67
2023/10/14 09:18:21;;;;;;;15.30;5.43;;;13.60;99.90;;;;;;5054889;28;20176;-67
2023/10/14 09:20:53;;;;;;;11.98;3.90;;;13.60;99.90;;;;;;5054707;28;20276;-68
2023/10/14 09:23:27;;;;;;;11.27;4.30;;;13.70;99.90;;;;;;5054884;28;20175;-68
2023/10/14 09:26:03;;;;;;;10.15;3.42;;;13.80;99.90;;;;;;5054813;28;20183;-68
2023/10/14 09:28:33;;;;;;;12.57;4.32;;;13.90;99.90;;;;;;5054697;28;20186;-59
2023/10/14 09:31:02;;;;;;;11.65;3.67;;;13.90;99.90;;;;;;5054949;28;20702;-64
2023/10/14 09:33:34;;;;;;;9.65;3.95;;;14.00;99.90;;;;;;5054851;28;20563;-63
2023/10/14 09:36:11;;;;;;;10.30;3.72;;;14.00;99.90;;;;;;5054645;28;20202;-64
2023/10/14 09:38:38;;;;;;;9.20;3.63;;;14.00;99.90;;;;;;5054508;28;20256;-64
2023/10/14 09:41:10;;;;;;;13.50;4.20;;;14.00;99.90;;;;;;5054449;28;20218;-64
2023/10/14 09:43:43;;;;;;;14.85;4.03;;;14.10;99.90;;;;;;5054035;28;20195;-64
2023/10/14 09:46:17;;;;;;;12.38;3.70;;;14.10;99.90;;;;;;5054495;28;20648;-64
2023/10/14 09:48:46;;;;;;;10.48;3.75;;;14.10;99.90;;;;;;5054296;28;20632;-58
2023/10/14 09:51:15;;;;;;;13.02;4.88;;;14.30;99.90;;;;;;5053811;28;20254;-64
2023/10/14 09:53:44;;;;;;;13.13;3.70;;;14.30;99.90;;;;;;5053585;28;20218;-64
2023/10/14 09:56:12;;;;;;;11.38;3.65;;;14.40;99.90;;;;;;5053685;28;20651;-64
2023/10/14 09:58:41;;;;;;;9.07;3.80;;;14.50;99.90;;;;;;5054287;28;20186;-63
2023/10/14 10:01:12;;;;;;;12.07;3.78;;;14.60;99.90;;;;;;5054160;28;20169;-64
2023/10/14 10:03:48;;;;;;;14.15;3.90;;;14.90;99.90;;;;;;5054134;28;20218;-64
2023/10/14 10:06:47;;;;;;;9.95;3.78;;;15.00;99.90;;;;;;5053971;28;20309;-64
2023/10/14 10:09:17;;;;;;;8.95;3.55;;;14.90;99.90;;;;;;5054085;28;20171;-64
2023/10/14 10:11:46;;;;;;;9.55;3.13;;;14.80;99.90;;;;;;5054007;28;20163;-63
2023/10/14 10:14:16;;;;;;;12.23;3.63;;;15.00;99.90;;;;;;5053800;28;20258;-64
2023/10/14 10:16:42;;;;;;;11.60;3.08;;;15.00;99.90;;;;;;5053713;28;20172;-64
2023/10/14 10:19:10;;;;;;;7.38;2.70;;;15.10;99.90;;;;;;5053742;28;20175;-64
2023/10/14 10:21:43;;;;;;;14.18;3.33;;;15.20;99.90;;;;;;5053838;28;20585;-64
2023/10/14 10:24:38;;;;;;;11.15;3.47;;;15.20;99.90;;;;;;5053848;28;20203;-64
2023/10/14 10:27:03;;;;;;;11.80;2.83;;;15.10;99.90;;;;;;5053563;28;20179;-64
2023/10/14 10:29:41;;;;;;;8.30;2.80;;;14.90;99.90;;;;;;5053765;28;20232;-64
2023/10/14 10:32:09;;;;;;;8.63;2.90;;;14.70;99.90;;;;;;5053855;28;20624;-64
2023/10/14 10:35:07;;;;;;;11.07;3.15;;;14.40;99.90;;;;;;5053568;28;20258;-64
2023/10/14 10:37:52;;;;;;;8.60;2.78;;;14.40;99.90;;;;;;5053253;28;20262;-64
2023/10/14 10:40:22;;;;;;;7.35;2.92;;;14.20;99.90;;;;;;5053692;28;20258;-63
2023/10/14 10:42:53;;;;;;;10.25;2.80;;;13.70;99.90;;;;;;5053072;28;20224;-64
2023/10/14 10:45:42;;;;;;;9.40;2.97;;;13.40;99.90;;;;;;5052317;28;20203;-64
2023/10/14 10:48:14;;;;;;;7.82;2.72;;;13.30;99.90;;;;;;5052463;28;20528;-64
2023/10/14 10:50:41;;;;;;;11.45;2.78;;;13.40;99.90;;;;;;5053162;28;20164;-64
2023/10/14 10:53:07;;;;;;;11.32;3.30;;;13.40;99.90;;;;;;5053123;28;20624;-64
2023/10/14 10:55:43;;;;;;;8.63;2.80;;;13.40;99.90;;;;;;5052492;28;20174;-64
2023/10/14 10:58:13;;;;;;;9.88;2.88;;;13.40;99.90;;;;;;5053262;28;20167;-63
2023/10/14 11:00:47;;;;;;;12.55;3.03;;;13.50;99.90;;;;;;5053127;28;20175;-63
2023/10/14 11:03:16;;;;;;;8.02;3.03;;;13.50;99.90;;;;;;5053246;28;20179;-64
2023/10/14 11:05:46;;;;;;;8.95;2.90;;;13.60;99.90;;;;;;5053229;28;20187;-64
2023/10/14 11:08:18;;;;;;;14.40;3.38;;;13.90;99.90;;;;;;5053098;28;20172;-64
2023/10/14 11:10:45;;;;;;;9.48;3.17;;;14.10;99.90;;;;;;5053070;28;20309;-64
2023/10/14 11:13:13;;;;;;;9.50;2.55;;;14.20;99.90;;;;;;5052940;28;20179;-64
2023/10/14 11:15:43;;;;;;;11.20;3.30;;;14.20;99.90;;;;;;5052946;28;20623;-63
2023/10/14 11:18:10;;;;;;;10.88;2.75;;;14.10;99.90;;;;;;5053050;28;20317;-64
2023/10/14 11:20:41;;;;;;;8.60;2.75;;;13.90;99.90;;;;;;5053197;28;20348;-64
2023/10/14 11:23:09;;;;;;;7.65;2.72;;;13.80;99.90;;;;;;5052923;28;20237;-64
2023/10/14 11:25:42;;;;;;;6.32;2.88;;;13.60;99.90;;;;;;5052784;28;20194;-64
2023/10/14 11:28:14;;;;;;;6.22;2.13;;;13.60;99.90;;;;;;5053019;28;20631;-64
2023/10/14 11:30:42;;;;;;;7.35;2.10;;;13.80;99.90;;;;;;5052951;28;20252;-64
2023/10/14 11:33:12;;;;;;;6.35;2.22;;;13.90;99.90;;;;;;5052890;28;20175;-64
2023/10/14 11:35:40;;;;;;;9.52;2.85;;;13.80;99.90;;;;;;5053069;28;20175;-63
2023/10/14 11:38:07;;;;;;;7.18;2.42;;;13.70;99.90;;;;;;5052707;28;20179;-64
2023/10/14 11:40:37;;;;;;;12.23;2.85;;;13.80;99.90;;;;;;5052907;28;20690;-64
2023/10/14 11:43:05;;;;;;;7.80;2.42;;;13.80;99.90;;;;;;5052963;28;20178;-64
2023/10/14 11:45:32;;;;;;;12.13;3.10;;;13.70;99.90;;;;;;5052736;28;20199;-64
2023/10/14 11:48:00;;;;;;;9.60;3.13;;;13.70;99.90;;;;;;5052668;28;20612;-64
2023/10/14 11:50:26;;;;;;;10.15;3.13;;;13.70;99.90;;;;;;5052588;28;20532;-61
2023/10/14 11:52:57;;;;;;;7.53;2.72;;;13.70;99.90;;;;;;5052815;28;20176;-64
2023/10/14 11:55:25;;;;;;;8.70;3.05;;;13.80;99.90;;;;;;5052847;28;20579;-64
2023/10/14 11:57:53;;;;;;;11.50;3.58;;;14.10;99.90;;;;;;5052707;28;20209;-63
2023/10/14 12:00:20;;;;;;;11.40;3.80;;;14.50;99.90;;;;;;5052342;28;20633;-64
2023/10/14 12:02:47;;;;;;;11.20;3.50;;;14.50;99.90;;;;;;5052754;28;20246;-63
2023/10/14 12:05:16;;;;;;;10.20;3.40;;;14.50;99.90;;;;;;5052808;28;20199;-64
2023/10/14 12:07:43;;;;;;;11.88;3.50;;;14.80;99.90;;;;;;5056446;28;20203;-64
2023/10/14 12:10:09;;;;;;;8.68;3.03;;;14.80;99.90;;;;;;5056306;28;20183;-64
2023/10/14 12:12:38;;;;;;;9.70;3.20;;;14.60;99.90;;;;;;5056259;28;20258;-64
2023/10/14 12:15:05;;;;;;;10.82;3.80;;;14.80;99.90;;;;;;5056234;28;20183;-64
2023/10/14 12:17:38;;;;;;;10.27;3.17;;;14.70;99.90;;;;;;5056029;28;20172;-64
2023/10/14 12:20:05;;;;;;;12.23;3.17;;;14.40;99.90;;;;;;5056038;28;20231;-64
2023/10/14 12:22:32;;;;;;;7.88;2.80;;;14.30;99.90;;;;;;5056002;28;20194;-62
2023/10/14 12:24:58;;;;;;;10.30;4.30;;;14.50;99.90;;;;;;5055884;28;20318;-63
2023/10/14 12:27:28;;;;;;;7.32;2.90;;;14.30;99.90;;;;;;5055901;28;20176;-64
2023/10/14 12:29:54;;;;;;;9.43;2.80;;;14.30;99.90;;;;;;5055512;28;20171;-64
2023/10/14 12:32:20;;;;;;;7.57;2.85;;;14.40;99.90;;;;;;5055413;28;20179;-64
2023/10/14 12:34:48;;;;;;;10.57;2.90;;;14.30;99.90;;;;;;5067098;28;20221;-64
2023/10/14 12:37:21;;;;;;;10.00;2.70;;;14.30;99.90;;;;;;5075835;28;20257;-64
2023/10/14 12:40:04;;;;;;;9.60;2.60;;;14.20;99.90;;;;;;5075778;28;20167;-64
2023/10/14 12:42:46;;;;;;;9.10;2.83;;;14.20;99.90;;;;;;5075532;28;20651;-64
2023/10/14 12:45:23;;;;;;;8.20;2.70;;;14.30;99.90;;;;;;5075613;28;20229;-65
2023/10/14 12:47:49;;;;;;;4.80;2.40;;;14.10;99.90;;;;;;5075712;28;20174;-64
2023/10/14 12:50:19;;;;;;;8.30;2.83;;;14.20;99.90;;;;;;5075459;28;20166;-64
2023/10/14 12:52:49;;;;;;;9.75;2.67;;;14.10;99.90;;;;;;5075650;28;20206;-64
2023/10/14 12:55:22;;;;;;;9.98;2.88;;;14.20;99.90;;;;;;5075312;28;20186;-64
2023/10/14 12:57:49;;;;;;;7.38;2.65;;;14.30;99.90;;;;;;5075518;28;20197;-64
2023/10/14 13:00:25;;;;;;;8.80;2.47;;;14.40;99.90;;;;;;5075437;28;20178;-64
2023/10/14 13:02:53;;;;;;;12.20;3.25;;;14.70;99.90;;;;;;5075379;28;20167;-64
2023/10/14 13:05:20;;;;;;;8.43;2.50;;;14.80;99.90;;;;;;5075021;28;20214;-64
2023/10/14 13:07:52;;;;;;;8.48;2.50;;;14.80;99.90;;;;;;5074897;28;20186;-64
2023/10/14 13:10:22;;;;;;;7.82;2.80;;;14.70;99.90;;;;;;5075380;28;20186;-64
2023/10/14 13:12:53;;;;;;;9.40;3.03;;;14.60;99.90;;;;;;5075300;28;20167;-64
2023/10/14 13:15:30;;;;;;;9.45;2.78;;;14.50;99.90;;;;;;5075073;28;20639;-64
2023/10/14 13:17:56;;;;;;;7.35;2.65;;;14.50;99.90;;;;;;5072811;28;20566;-64